Airfield :
LOGIN :

Register | Disclaimer

   EN    FR    IT 

 










Legend :    VFR   Marginal VFR   IFR   Intensive IFR   Very Intensive IFR
Visi :
Ceiling :
>= 8 km
>= 3000ft
5 to 8 km
1000 to 3000 ft
1500m to 5 km
500 to 1000 ft
800 to 1500m
200 to 500 ft
< 800m
< 200 ft
Symbols :   Thunderstorms  Fog  Heavy snow  Heavy precipitations  Wind > 20 kt
SIGMETs :     Misc.  Thunderstorms  Icing  Turbulence  Mountain Waves  Volcanic Ashes






- Airport Elevation : 1213 ft
- IATA code : SCQ


LEST - Santiago de Compostela

CURRENT METAR :
  • 060330Z VRB02KT 9999 SCT002 09/09 Q1016 NOSIG

EXPIRED METARs :
  • 060300Z VRB01KT 9999 SCT002 09/09 Q1016 NOSIG
  • 060230Z 00000KT 9999 SCT040 09/09 Q1015 NOSIG
  • 060200Z 19002KT 9999 SCT039 09/09 Q1015 NOSIG
  • 060130Z VRB02KT 9999 BKN038 09/09 Q1015 NOSIG
  • 060100Z 25002KT 9999 BKN040 10/09 Q1015 NOSIG

TAF TAF LEST
Valid from the 06 at 00:00 until the 07 at 00:00 UTC


052300Z 0600/0624 20009KT 8000 SCT010 BKN020 TX17/0615Z TN07/0606Z
TEMPO 0600/0609 3000 BR BKN010
TEMPO 0600/0609 1500 BCFG BKN005
TEMPO 0600/0609 0350 FG VV001
PROB30
TEMPO 0612/0624 3000 RA SHRA BKN010 SCT030TCU



MET'MAP, your aeronautical weather chart ! - Copyright ORBIFLY December 2007 - Disclaimer

ORBIFLY MET'MAP TEAM :

Programming & Development : Alexandra Zaïnal
Concept & original design : Baudouin d'Aumeries
Assistance for programming : Marc-Olivier Méhu
Technical & hardware support : Manuel Goepfert

Contact : metmap@orbifly.com




SOURCES & CREDITS :

   NOAA